M I D A S
Marine Information and Data Acquisition System
Tripno 1199 of the Zeeleeuw from 2006-12-12 07:46:21 to 2006-12-12 12:17:22
Back to CruiseResearch ActivitiesStationsMapUnderway DataData graphs

EquipmentUnitsComments
TimeDGPSUTC
LatitudeDGPSDM.mWGS84
LongitudeDGPSDM.mWGS84
SpeedMeteo Stationm/sRelative wind speed
DirectionMeteo StationdegRelative wind direction
TemperatureMeteo Stationdeg CelciusAir temperature
PressureMeteo StationPaAtmospheric pressure
HumidityMeteo Station%Relative humidity
Missing or incorrect values are displayed as -999
Metereological data collected by the RV Zeeleeuw from 2006-12-12 07:45:14 to 2006-12-12 13:19:31
Time Latitude Longitude Speed Direction Temperature Pressure Humidity
2006-12-12 07:47 51°13.649 2°55.911 2.9 54 4.7 102130 90
2006-12-12 07:48 51°13.689 2°55.8 2.1 30 4.7 102140 90
2006-12-12 07:49 51°13.749 2°55.72 3.5 18 4.7 102140 90
2006-12-12 07:50 51°13.827 2°55.639 1 14 4.7 102140 90
2006-12-12 07:51 51°13.911 2°55.59 1 38 4.7 102140 90
2006-12-12 07:52 51°13.969 2°55.615 2.2 304 4.7 102140 90
2006-12-12 07:53 51°13.976 2°55.577 3.4 304 4.8 102140 91
2006-12-12 07:54 51°14.056 2°55.479 3.4 312 4.8 102140 91
2006-12-12 07:55 51°14.224 2°55.321 4.3 309 4.9 102140 91
2006-12-12 07:56 51°14.376 2°55.068 8 310 5 102130 91
2006-12-12 07:57 51°14.564 2°54.86 5.9 310 5.3 102120 91
2006-12-12 07:58 51°14.771 2°54.685 6.8 238 5.4 102130 91
2006-12-12 07:59 51°14.973 2°54.501 6.7 302 5.7 102120 92
2006-12-12 08:00 51°15.173 2°54.317 6.8 234 5.9 102120 91
2006-12-12 08:01 51°15.375 2°54.128 7.5 304 6.1 102140 91
2006-12-12 08:02 51°15.578 2°53.941 7.1 242 6.3 102120 91
2006-12-12 08:03 51°15.78 2°53.761 5.5 310 6.4 102120 90
2006-12-12 08:04 51°15.981 2°53.581 6 307 6.5 102120 90
2006-12-12 08:05 51°16.183 2°53.398 7.9 241 6.7 102110 91
2006-12-12 08:06 51°16.384 2°53.217 7.9 309 6.9 102110 92
2006-12-12 08:07 51°16.587 2°53.041 7.2 32 7.2 102110 92
2006-12-12 08:08 51°16.791 2°52.868 7.2 310 7.4 102110 92
2006-12-12 08:09 51°16.996 2°52.694 6.6 244 7.6 102110 91
2006-12-12 08:10 51°17.223 2°52.61 5.2 309 7.7 102120 91
2006-12-12 08:11 51°17.457 2°52.593 6.7 250 7.9 102120 91
2006-12-12 08:12 51°17.69 2°52.579 9.7 247 8.1 102100 91
2006-12-12 08:13 51°17.925 2°52.583 12.3 251 8.3 102110 91
2006-12-12 08:14 51°18.148 2°52.683 6.8 259 8.5 102090 90
2006-12-12 08:15 51°18.32 2°52.935 6 305 8.9 102110 85
2006-12-12 08:16 51°18.498 2°53.176 5.1 260 9.3 102100 81
2006-12-12 08:17 51°18.681 2°53.411 6.9 261 9.6 102100 79
2006-12-12 08:18 51°18.862 2°53.645 4.7 270 9.7 102110 76
2006-12-12 08:19 51°19.048 2°53.871 4.7 304 9.8 102090 74
2006-12-12 08:20 51°19.238 2°54.089 6.3 39 10 102100 73
2006-12-12 08:21 51°19.424 2°54.313 4.5 262 10 102110 72
2006-12-12 08:22 51°19.607 2°54.542 7.3 261 10.1 102100 73
2006-12-12 08:23 51°19.796 2°54.766 7.3 267 10.1 102100 71
2006-12-12 08:24 51°19.981 2°54.995 9.6 258 10.1 102100 69
2006-12-12 08:25 51°20.163 2°55.234 7 262 10.1 102110 69
2006-12-12 08:26 51°20.343 2°55.484 6.2 310 10.1 102100 69
2006-12-12 08:27 51°20.503 2°55.764 6.6 36 10.1 102100 67
2006-12-12 08:28 51°20.66 2°56.044 6.9 309 10.1 102110 67
2006-12-12 08:29 51°20.802 2°56.337 5.4 270 10.1 102110 65
2006-12-12 08:30 51°20.949 2°56.626 3.2 267 10.2 102120 66
2006-12-12 08:31 51°21.091 2°56.917 5.5 52 10.2 102110 67
2006-12-12 08:32 51°21.227 2°57.221 5.2 37 10.2 102110 68
2006-12-12 08:33 51°21.364 2°57.516 3.8 39 10.2 102110 68
2006-12-12 08:34 51°21.495 2°57.818 6 31 10.2 102110 68
2006-12-12 08:35 51°21.567 2°58.065 5.4 57 10.3 102110 68
2006-12-12 08:36 51°21.604 2°58.242 6.3 34 10.3 102110 67
2006-12-12 08:37 51°21.646 2°58.37 12.2 34 10.6 102110 66
2006-12-12 08:38 51°21.719 2°58.38 14 240 10.4 102080 65
2006-12-12 08:39 51°21.755 2°58.335 13.7 319 10.4 102050 67
2006-12-12 08:40 51°21.743 2°58.269 14.6 345 10.3 102060 67
2006-12-12 08:41 51°21.716 2°58.225 13.9 343 10.3 102070 67
2006-12-12 08:42 51°21.71 2°58.202 12.3 334 10.2 102080 68
2006-12-12 08:43 51°21.706 2°58.163 13.3 332 10.2 102090 70
2006-12-12 08:44 51°21.708 2°58.156 11.7 331 10.2 102090 70
2006-12-12 08:45 51°21.713 2°58.178 11.2 352 10.1 102090 69
2006-12-12 08:46 51°21.719 2°58.2 11.7 358 10.1 102080 70
2006-12-12 08:47 51°21.713 2°58.216 10.2 358 10.1 102070 71
2006-12-12 08:48 51°21.697 2°58.211 12.1 343 10.2 102080 72
2006-12-12 08:49 51°21.686 2°58.196 9.5 339 10.1 102070 72
2006-12-12 08:50 51°21.683 2°58.188 11.9 337 10.2 102090 73
2006-12-12 08:51 51°21.683 2°58.192 10.5 340 10.2 102090 73
2006-12-12 08:52 51°21.68 2°58.197 11 350 10.1 102080 72
2006-12-12 08:53 51°21.676 2°58.202 13.3 343 10.2 102100 72
2006-12-12 08:54 51°21.672 2°58.199 12.7 332 10.2 102080 71
2006-12-12 08:55 51°21.671 2°58.192 11.2 324 10.1 102080 70
2006-12-12 08:56 51°21.677 2°58.175 11.7 307 10.2 102090 71
2006-12-12 08:57 51°21.684 2°58.163 10 329 10.2 102090 71
2006-12-12 08:58 51°21.691 2°58.151 12.3 303 10.2 102070 69
2006-12-12 08:59 51°21.699 2°58.149 10.5 328 10.3 102080 68
2006-12-12 09:00 51°21.706 2°58.161 12.1 331 10.3 102080 69
2006-12-12 09:01 51°21.713 2°58.181 10.7 329 10.3 102090 68
2006-12-12 09:02 51°21.716 2°58.198 11.5 335 10.3 102090 69
2006-12-12 09:03 51°21.714 2°58.213 12.7 351 10.3 102070 67
2006-12-12 09:04 51°21.707 2°58.225 12.4 355 10.3 102070 67
2006-12-12 09:05 51°21.69 2°58.223 12.5 349 10.3 102070 68
2006-12-12 09:06 51°21.678 2°58.209 11.7 338 10.3 102060 67
2006-12-12 09:07 51°21.676 2°58.205 12.5 340 10.3 102080 69
2006-12-12 09:08 51°21.675 2°58.211 11.1 337 10.3 102090 68
2006-12-12 09:09 51°21.675 2°58.223 11.9 350 10.4 102090 70
2006-12-12 09:10 51°21.668 2°58.225 10.7 344 10.3 102080 70
2006-12-12 09:11 51°21.658 2°58.208 10.6 330 10.3 102100 72
2006-12-12 09:12 51°21.658 2°58.185 10.9 321 10.3 102090 72
2006-12-12 09:13 51°21.667 2°58.181 12.4 308 10.3 102100 71
2006-12-12 09:14 51°21.682 2°58.178 11.7 305 10.3 102080 70
2006-12-12 09:15 51°21.7 2°58.173 12.6 36 10.3 102060 70
2006-12-12 09:16 51°21.719 2°58.165 10.9 306 10.4 102090 69
2006-12-12 09:17 51°21.735 2°58.148 11.6 303 10.4 102080 70
2006-12-12 09:18 51°21.738 2°58.137 11.2 337 10.4 102100 71
2006-12-12 09:19 51°21.737 2°58.129 13.4 335 10.4 102110 72
2006-12-12 09:20 51°21.734 2°58.121 10.6 331 10.4 102110 71
2006-12-12 09:21 51°21.731 2°58.108 11.7 332 10.4 102110 71
2006-12-12 09:22 51°21.73 2°58.099 13.4 330 10.4 102100 71
2006-12-12 09:23 51°21.73 2°58.097 12.7 333 10.4 102110 70
2006-12-12 09:24 51°21.73 2°58.102 10.5 337 10.4 102110 70
2006-12-12 09:25 51°21.729 2°58.11 10.1 350 10.4 102110 71
2006-12-12 09:26 51°21.729 2°58.123 11.4 356 10.4 102100 71
2006-12-12 09:27 51°21.72 2°58.131 13.4 2 10.4 102100 72
2006-12-12 09:28 51°21.709 2°58.136 10 358 10.4 102100 70
2006-12-12 09:29 51°21.709 2°58.15 13.1 9 10.4 102100 72
2006-12-12 09:30 51°21.718 2°58.167 10.8 22 10.3 102080 70
2006-12-12 09:31 51°21.692 2°58.211 11.3 36 10.4 102100 71
2006-12-12 09:32 51°21.693 2°58.335 5.1 52 10.3 102120 70
2006-12-12 09:33 51°21.774 2°58.383 13 306 10.4 102120 70
2006-12-12 09:34 51°21.822 2°58.307 12.4 319 10.4 102080 69
2006-12-12 09:35 51°21.824 2°58.238 13.1 325 10.4 102070 69
2006-12-12 09:36 51°21.816 2°58.187 14.1 335 10.5 102090 69
2006-12-12 09:37 51°21.799 2°58.136 11 336 10.4 102100 68
2006-12-12 09:38 51°21.789 2°58.104 12.3 333 10.5 102100 68
2006-12-12 09:39 51°21.786 2°58.085 10.5 301 10.5 102110 71
2006-12-12 09:40 51°21.784 2°58.077 10.5 329 10.3 102120 73
2006-12-12 09:41 51°21.782 2°58.072 11.9 337 10.1 102140 75
2006-12-12 09:42 51°21.783 2°58.075 12.1 339 10.1 102130 72
2006-12-12 09:43 51°21.781 2°58.078 10.2 342 10.3 102120 70
2006-12-12 09:44 51°21.774 2°58.074 9.7 326 10.4 102110 70
2006-12-12 09:45 51°21.767 2°58.058 8.9 328 10.1 102130 73
2006-12-12 09:46 51°21.761 2°58.039 9.1 303 9.7 102130 76
2006-12-12 09:47 51°21.76 2°58.028 8.3 322 9.5 102120 78
2006-12-12 09:48 51°21.762 2°58.031 10.7 333 9.5 102140 79
2006-12-12 09:49 51°21.763 2°58.039 13 339 9.7 102130 75
2006-12-12 09:50 51°21.761 2°58.046 8.2 335 10.1 102130 73
2006-12-12 09:51 51°21.75 2°58.036 9.3 329 10 102140 76
2006-12-12 09:52 51°21.744 2°58.014 7.5 32 9.7 102140 77
2006-12-12 09:53 51°21.749 2°58.006 8.9 38 9.6 102130 79
2006-12-12 09:54 51°21.754 2°58.017 9.4 241 9.7 102150 79
2006-12-12 09:55 51°21.757 2°58.036 12.2 308 9.9 102120 76
2006-12-12 09:56 51°21.754 2°58.054 7.7 50 10.1 102120 75
2006-12-12 09:57 51°21.752 2°58.06 7.2 49 9.9 102160 75
2006-12-12 09:58 51°21.754 2°58.063 5.6 54 9.1 102170 75
2006-12-12 09:59 51°21.762 2°58.067 4.6 52 8.5 102160 78
2006-12-12 10:00 51°21.775 2°58.07 7.1 57 8.3 102160 79
2006-12-12 10:01 51°21.789 2°58.071 8.1 54 8.2 102150 81
2006-12-12 10:02 51°21.802 2°58.069 6.4 310 8.2 102140 82
2006-12-12 10:03 51°21.809 2°58.074 7 310 8.4 102140 83
2006-12-12 10:04 51°21.792 2°58.091 11.3 56 8.5 102150 84
2006-12-12 10:05 51°21.784 2°58.096 9 55 8.6 102150 83
2006-12-12 10:06 51°21.786 2°58.098 9.2 57 8.7 102140 83
2006-12-12 10:07 51°21.793 2°58.101 10.5 51 8.8 102140 83
2006-12-12 10:08 51°21.803 2°58.104 12.1 353 8.9 102140 82
2006-12-12 10:09 51°21.81 2°58.107 7.3 303 8.9 102140 82
2006-12-12 10:10 51°21.814 2°58.116 7 308 9 102140 81
2006-12-12 10:11 51°21.821 2°58.119 7.3 308 9 102140 81
2006-12-12 10:12 51°21.845 2°58.011 12.1 308 9.1 102140 82
2006-12-12 10:13 51°21.736 2°57.902 13.6 335 9.1 102150 82
2006-12-12 10:14 51°21.594 2°57.772 15.3 334 9 102140 82
2006-12-12 10:15 51°21.467 2°57.598 15.3 305 8.8 102140 83
2006-12-12 10:16 51°21.408 2°57.442 10.2 303 8.6 102150 83
2006-12-12 10:17 51°21.408 2°57.422 10.6 310 8.5 102150 83
2006-12-12 10:18 51°21.412 2°57.429 7.8 310 8.5 102160 84
2006-12-12 10:19 51°21.414 2°57.437 9.3 308 8.4 102170 84
2006-12-12 10:20 51°21.414 2°57.446 10.9 53 8.4 102150 83
2006-12-12 10:21 51°21.414 2°57.451 8.5 54 8.3 102150 83
2006-12-12 10:22 51°21.415 2°57.456 9.6 53 8.2 102150 82
2006-12-12 10:23 51°21.422 2°57.458 9.9 52 8.2 102150 83
2006-12-12 10:24 51°21.432 2°57.458 9.7 48 8.1 102150 83
2006-12-12 10:25 51°21.443 2°57.457 8.9 54 8.1 102150 83
2006-12-12 10:26 51°21.447 2°57.458 9.2 53 8.1 102150 84
2006-12-12 10:27 51°21.44 2°57.466 9.8 51 8.2 102150 85
2006-12-12 10:28 51°21.444 2°57.467 9 55 8.1 102150 84
2006-12-12 10:29 51°21.451 2°57.465 7.5 55 8.1 102160 85
2006-12-12 10:30 51°21.461 2°57.463 9.7 51 8.1 102150 85
2006-12-12 10:31 51°21.471 2°57.46 10.1 59 8.2 102150 86
2006-12-12 10:32 51°21.478 2°57.459 7.4 302 8.1 102150 85
2006-12-12 10:33 51°21.471 2°57.469 8.6 51 8.2 102150 86
2006-12-12 10:34 51°21.434 2°57.464 6.5 51 8.2 102160 85
2006-12-12 10:35 51°21.442 2°57.46 7.9 53 8.3 102170 85
2006-12-12 10:36 51°21.486 2°57.439 8.9 308 8.2 102140 85
2006-12-12 10:37 51°21.498 2°57.433 11.3 57 8.3 102160 85
2006-12-12 10:38 51°21.503 2°57.436 11.6 53 8.2 102150 85
2006-12-12 10:39 51°21.508 2°57.438 10.6 54 8.1 102140 84
2006-12-12 10:40 51°21.516 2°57.438 10.3 32 8.1 102140 85
2006-12-12 10:41 51°21.522 2°57.436 9.4 53 8.1 102150 85
2006-12-12 10:42 51°21.529 2°57.438 7.7 308 8.2 102150 86
2006-12-12 10:43 51°21.532 2°57.442 8.7 304 8.2 102150 86
2006-12-12 10:44 51°21.534 2°57.447 10.3 51 8.3 102150 85
2006-12-12 10:45 51°21.536 2°57.451 9.3 48 8.3 102140 85
2006-12-12 10:46 51°21.554 2°57.445 7.8 56 8.4 102150 85
2006-12-12 10:47 51°21.615 2°57.483 8 36 8.4 102160 84
2006-12-12 10:48 51°21.594 2°57.583 10.2 357 8.4 102150 84
2006-12-12 10:49 51°21.514 2°57.583 13.4 328 8.4 102120 84
2006-12-12 10:50 51°21.458 2°57.47 11.6 305 8.3 102120 83
2006-12-12 10:51 51°21.441 2°57.376 10.1 303 8.3 102120 83
2006-12-12 10:52 51°21.446 2°57.363 8.7 305 8.2 102120 83
2006-12-12 10:53 51°21.451 2°57.364 9.5 308 8.2 102130 83
2006-12-12 10:54 51°21.457 2°57.366 11.7 309 8.3 102130 84
2006-12-12 10:55 51°21.46 2°57.371 8.7 309 8.4 102130 84
2006-12-12 10:56 51°21.462 2°57.374 9.2 270 8.3 102140 84
2006-12-12 10:57 51°21.472 2°57.367 6.6 266 8.3 102130 83
2006-12-12 10:58 51°21.476 2°57.369 8.6 270 8.3 102140 83
2006-12-12 10:59 51°21.477 2°57.374 7.2 35 8.3 102120 83
2006-12-12 11:00 51°21.477 2°57.379 9.9 37 8.5 102120 84
2006-12-12 11:01 51°21.477 2°57.382 9.7 32 8.5 102130 84
2006-12-12 11:02 51°21.48 2°57.383 9 35 8.5 102120 83
2006-12-12 11:03 51°21.484 2°57.384 9.7 15 8.6 102120 84
2006-12-12 11:04 51°21.499 2°57.371 6.6 264 8.6 102130 83
2006-12-12 11:05 51°21.51 2°57.357 6.3 263 8.6 102130 82
2006-12-12 11:06 51°21.519 2°57.35 7.1 261 8.7 102130 83
2006-12-12 11:07 51°21.526 2°57.347 7.3 266 8.6 102130 82
2006-12-12 11:08 51°21.53 2°57.351 8.9 270 8.7 102120 82
2006-12-12 11:09 51°21.529 2°57.357 11.9 34 8.6 102120 82
2006-12-12 11:10 51°21.515 2°57.361 9.2 39 8.5 102130 81
2006-12-12 11:11 51°21.471 2°57.346 7.9 32 8.4 102140 81
2006-12-12 11:12 51°21.445 2°57.321 9.4 32 8.5 102140 81
2006-12-12 11:13 51°21.463 2°57.383 9.6 39 8.5 102140 81
2006-12-12 11:14 51°21.469 2°57.394 8.3 35 8.4 102130 82
2006-12-12 11:15 51°21.473 2°57.392 10 31 8.5 102110 82
2006-12-12 11:16 51°21.477 2°57.395 8.3 28 8.4 102110 82
2006-12-12 11:17 51°21.479 2°57.4 8.7 21 8.5 102100 83
2006-12-12 11:18 51°21.479 2°57.405 9.8 17 8.5 102100 83
2006-12-12 11:19 51°21.478 2°57.41 9 19 8.4 102100 83
2006-12-12 11:20 51°21.477 2°57.413 9 17 8.5 102100 83
2006-12-12 11:21 51°21.476 2°57.416 10.5 12 8.5 102100 83
2006-12-12 11:22 51°21.473 2°57.417 8 8 8.6 102090 84
2006-12-12 11:23 51°21.469 2°57.418 7.1 4 8.7 102090 84
2006-12-12 11:24 51°21.468 2°57.417 7.5 358 8.7 102090 84
2006-12-12 11:25 51°21.467 2°57.419 8 7 8.7 102080 84
2006-12-12 11:26 51°21.44 2°57.429 11.1 344 8.7 102070 83
2006-12-12 11:27 51°21.333 2°57.35 14.1 332 8.7 102090 84
2006-12-12 11:28 51°21.159 2°57.165 16.5 325 8.7 102070 84
2006-12-12 11:29 51°21.013 2°56.885 14.9 325 8.7 102060 84
2006-12-12 11:30 51°20.871 2°56.603 14 323 8.8 102080 85
2006-12-12 11:31 51°20.729 2°56.317 15.9 323 8.8 102050 85
2006-12-12 11:32 51°20.588 2°56.028 14.4 322 8.8 102040 85
2006-12-12 11:33 51°20.45 2°55.737 16.8 324 8.9 102050 84
2006-12-12 11:34 51°20.312 2°55.448 16.4 323 9 102030 83
2006-12-12 11:35 51°20.174 2°55.163 17.4 325 9.1 102030 83
2006-12-12 11:36 51°20.02 2°54.896 16 323 9.1 102020 82
2006-12-12 11:37 51°19.864 2°54.628 17.1 325 9.1 102030 82
2006-12-12 11:38 51°19.696 2°54.382 17.4 327 9.2 102040 81
2006-12-12 11:39 51°19.517 2°54.154 18.4 326 9.2 102030 81
2006-12-12 11:40 51°19.335 2°53.93 15.9 329 9.2 102030 80
2006-12-12 11:41 51°19.152 2°53.711 18 327 9.2 102020 81
2006-12-12 11:42 51°18.968 2°53.49 17.1 327 9.2 102050 80
2006-12-12 11:43 51°18.784 2°53.271 15.8 327 9.2 102030 81
2006-12-12 11:44 51°18.601 2°53.055 15.8 326 9.2 102010 81
2006-12-12 11:45 51°18.413 2°52.846 17.1 326 9.2 102020 81
2006-12-12 11:46 51°18.215 2°52.662 15.4 330 9.2 102030 81
2006-12-12 11:47 51°18.002 2°52.529 15 334 9.2 102020 81
2006-12-12 11:48 51°17.781 2°52.437 15.6 332 9.2 102050 81
2006-12-12 11:49 51°17.558 2°52.349 16.1 334 9.2 102030 81
2006-12-12 11:50 51°17.33 2°52.324 16.5 340 9.1 102030 82
2006-12-12 11:51 51°17.102 2°52.328 16.3 337 9.1 102030 82
2006-12-12 11:52 51°16.878 2°52.354 16.1 338 9 102030 82
2006-12-12 11:53 51°16.656 2°52.421 16 342 9 102030 83
2006-12-12 11:54 51°16.437 2°52.513 16.4 345 8.9 102010 82
2006-12-12 11:55 51°16.22 2°52.595 15.8 342 8.8 102010 82
2006-12-12 11:56 51°16.01 2°52.707 15.8 345 8.8 102020 83
2006-12-12 11:57 51°15.809 2°52.853 16.7 347 8.7 102020 83
2006-12-12 11:58 51°15.607 2°53.001 14.1 342 8.7 102030 83
2006-12-12 11:59 51°15.414 2°53.164 13.9 346 8.7 102040 83
2006-12-12 12:00 51°15.228 2°53.341 15.1 349 8.6 102040 83
2006-12-12 12:01 51°15.041 2°53.519 13.3 349 8.5 102040 84
2006-12-12 12:02 51°14.865 2°53.718 12.7 351 8.5 102050 84
2006-12-12 12:03 51°14.757 2°54.004 11.2 358 8.5 102050 84
2006-12-12 12:04 51°14.663 2°54.312 11.2 360 8.4 102050 85
2006-12-12 12:05 51°14.557 2°54.613 12.6 354 8.4 102040 85
2006-12-12 12:06 51°14.435 2°54.886 11.6 356 8.4 102040 85
2006-12-12 12:07 51°14.339 2°55.112 9.1 354 8.4 102050 84
2006-12-12 12:08 51°14.242 2°55.291 6 348 8.5 102060 84
2006-12-12 12:09 51°14.145 2°55.405 7.9 345 8.6 102070 84
2006-12-12 12:10 51°14.04 2°55.482 8.8 339 8.6 102070 83
2006-12-12 12:11 51°13.937 2°55.557 7.5 341 8.7 102070 83
2006-12-12 12:12 51°13.833 2°55.633 7.1 333 8.8 102060 83
2006-12-12 12:13 51°13.75 2°55.719 5.7 343 8.8 102070 82
2006-12-12 12:14 51°13.696 2°55.815 3.8 350 8.9 102080 82
2006-12-12 12:15 51°13.654 2°55.901 4 354 8.9 102080 82
2006-12-12 12:16 51°13.624 2°55.982 4.7 6 8.9 102080 82
2006-12-12 12:17 51°13.607 2°56.052 3.7 8 9 102080 82